Time;durP1;ratioP1;P1;durP2;ratioP2;P2;SDS_P1;SDS_P2;PMS_P1;PMS_P2;Temp;Humidity;BMP_temperature;BMP_pressure;BME280_temperature;BME280_humidity;BME280_pressure;Samples;Min_cycle;Max_cycle;Signal;HPM_P1;HPM_P2
2022/11/10 00:02:28;;;;;;;17.20;6.55;;;10.40;99.90;;;;;;5067088;28;20177;-66
2022/11/10 00:05:14;;;;;;;10.10;5.97;;;10.40;99.90;;;;;;5064762;28;20075;-69
2022/11/10 00:08:11;;;;;;;10.23;5.88;;;10.40;99.90;;;;;;5062997;28;20105;-70
2022/11/10 00:10:56;;;;;;;11.82;6.10;;;10.40;99.90;;;;;;5061633;28;20048;-70
2022/11/10 00:17:01;;;;;;;17.25;6.70;;;10.50;99.90;;;;;;5061280;28;20509;-66
2022/11/10 00:19:46;;;;;;;12.30;6.22;;;10.50;99.90;;;;;;5070845;28;20062;-70
2022/11/10 00:22:33;;;;;;;10.57;6.57;;;10.40;99.90;;;;;;5073069;28;20050;-67
2022/11/10 00:25:18;;;;;;;10.73;6.50;;;10.40;99.90;;;;;;5058686;28;20695;-69
2022/11/10 00:28:04;;;;;;;12.27;6.30;;;10.50;99.90;;;;;;5062958;28;20461;-67
2022/11/10 00:30:50;;;;;;;19.80;8.90;;;10.50;99.90;;;;;;5065004;28;20052;-67
2022/11/10 00:33:40;;;;;;;10.27;6.60;;;10.50;99.90;;;;;;5063654;28;20075;-70
2022/11/10 00:36:26;;;;;;;10.55;6.20;;;10.50;99.90;;;;;;5062931;28;20891;-69
2022/11/10 00:39:11;;;;;;;19.48;8.40;;;10.50;99.90;;;;;;5059657;28;20099;-68
2022/11/10 00:41:57;;;;;;;8.05;7.20;;;10.50;99.90;;;;;;5064087;28;20075;-68
2022/11/10 00:44:42;;;;;;;9.43;6.65;;;10.50;99.90;;;;;;5067997;28;20126;-69
2022/11/10 00:47:28;;;;;;;9.20;5.60;;;10.50;99.90;;;;;;5062602;28;20137;-68
2022/11/10 00:50:14;;;;;;;10.40;6.00;;;10.50;99.90;;;;;;5068036;28;20058;-66
2022/11/10 00:53:00;;;;;;;13.30;8.43;;;10.50;99.90;;;;;;5063283;28;20051;-74
2022/11/10 00:55:46;;;;;;;16.58;7.65;;;10.50;99.90;;;;;;5064821;28;20137;-68
2022/11/10 00:58:31;;;;;;;8.88;6.68;;;10.50;99.90;;;;;;5065394;28;20474;-67
2022/11/10 01:01:18;;;;;;;9.85;6.78;;;10.50;99.90;;;;;;5065366;28;20500;-68
2022/11/10 01:04:04;;;;;;;11.70;6.50;;;10.50;99.90;;;;;;5067712;28;20179;-67
2022/11/10 01:06:51;;;;;;;10.50;6.95;;;10.50;99.90;;;;;;5059894;28;20055;-66
2022/11/10 01:09:37;;;;;;;13.75;8.73;;;10.50;99.90;;;;;;5064801;28;20484;-68
2022/11/10 01:12:22;;;;;;;10.65;7.85;;;10.60;99.90;;;;;;5064233;28;20072;-69
2022/11/10 01:15:09;;;;;;;11.00;7.43;;;10.60;99.90;;;;;;5069218;28;20056;-68
2022/11/10 01:17:55;;;;;;;13.82;6.63;;;10.60;99.90;;;;;;5066970;28;20060;-69
2022/11/10 01:20:40;;;;;;;15.27;7.38;;;10.50;99.90;;;;;;5066182;28;20513;-70
2022/11/10 01:23:25;;;;;;;16.77;7.45;;;10.60;99.90;;;;;;5066626;28;20060;-73
2022/11/10 01:26:11;;;;;;;12.85;7.38;;;10.50;99.90;;;;;;5065437;28;20083;-68
2022/11/10 01:28:57;;;;;;;12.27;6.88;;;10.60;99.90;;;;;;5067079;28;20174;-70
2022/11/10 01:31:43;;;;;;;13.70;7.18;;;10.60;99.90;;;;;;5062406;28;20469;-66
2022/11/10 01:34:28;;;;;;;7.53;6.70;;;10.60;99.90;;;;;;5064055;28;20490;-68
2022/11/10 01:37:14;;;;;;;9.20;7.78;;;10.60;99.90;;;;;;5065624;28;20579;-69
2022/11/10 01:39:59;;;;;;;12.43;7.18;;;10.60;99.90;;;;;;5062688;28;20067;-68
2022/11/10 01:42:54;;;;;;;10.90;5.75;;;10.60;99.90;;;;;;5066585;28;20327;-66
2022/11/10 01:45:49;;;;;;;9.85;6.93;;;10.60;99.90;;;;;;5062619;28;20106;-72
2022/11/10 01:48:37;;;;;;;13.85;5.95;;;10.60;99.90;;;;;;5066616;28;20048;-70
2022/11/10 01:51:25;;;;;;;7.05;5.45;;;10.60;99.90;;;;;;5064274;28;20210;-68
2022/11/10 01:54:26;;;;;;;7.50;5.28;;;10.60;99.90;;;;;;5062124;28;20155;-71
2022/11/10 01:57:13;;;;;;;8.38;5.38;;;10.60;99.90;;;;;;5063635;28;20142;-68
2022/11/10 01:59:59;;;;;;;7.72;5.18;;;10.60;99.90;;;;;;5067529;28;20288;-70
2022/11/10 02:02:56;;;;;;;8.50;5.20;;;10.50;99.90;;;;;;5062511;28;20117;-72
2022/11/10 02:05:43;;;;;;;14.50;5.75;;;10.50;99.90;;;;;;5060111;28;20106;-68
2022/11/10 02:08:29;;;;;;;11.27;5.25;;;10.50;99.90;;;;;;5063691;28;20184;-69
2022/11/10 02:11:15;;;;;;;8.57;5.28;;;10.50;99.90;;;;;;5064237;28;20366;-67
2022/11/10 02:14:01;;;;;;;16.38;5.95;;;10.50;99.90;;;;;;5061497;28;20146;-71
2022/11/10 02:16:47;;;;;;;9.88;5.15;;;10.50;99.90;;;;;;5066942;28;20751;-66
2022/11/10 02:19:40;;;;;;;10.55;5.05;;;10.50;99.90;;;;;;5059181;28;20119;-66
2022/11/10 02:22:26;;;;;;;9.68;5.18;;;10.50;99.90;;;;;;5061327;28;20055;-68
2022/11/10 02:25:16;;;;;;;12.88;5.72;;;10.50;99.90;;;;;;5062970;28;20518;-67
2022/11/10 02:28:01;;;;;;;;;;;10.50;99.90;;;;;;5063168;28;20052;-67
2022/11/10 02:30:46;;;;;;;;;;;10.50;99.90;;;;;;5059824;28;20493;-67
2022/11/10 02:33:31;;;;;;;;;;;10.50;99.90;;;;;;5068286;28;19995;-69
2022/11/10 02:36:16;;;;;;;;;;;10.50;99.90;;;;;;5067744;28;20013;-68
2022/11/10 02:39:02;;;;;;;;;;;10.50;99.90;;;;;;5066645;28;19926;-67
2022/11/10 02:41:47;;;;;;;;;;;10.40;99.90;;;;;;5066770;28;19931;-71
2022/11/10 02:44:32;;;;;;;;;;;10.40;99.90;;;;;;5066358;28;19931;-69
2022/11/10 02:47:18;;;;;;;;;;;10.30;99.90;;;;;;5069799;28;19971;-68
2022/11/10 02:50:03;;;;;;;;;;;10.30;99.90;;;;;;5062788;28;20003;-67
2022/11/10 02:52:49;;;;;;;;;;;10.30;99.90;;;;;;5062350;28;19951;-69
2022/11/10 02:55:34;;;;;;;;;;;10.20;99.90;;;;;;5061171;28;19939;-66
2022/11/10 02:58:19;;;;;;;;;;;10.10;99.90;;;;;;5063344;28;19947;-70
2022/11/10 03:01:05;;;;;;;;;;;10.10;99.90;;;;;;5067772;28;19954;-68
2022/11/10 03:03:51;;;;;;;;;;;10.00;99.90;;;;;;5072601;28;19931;-68
2022/11/10 03:06:36;;;;;;;;;;;10.00;99.90;;;;;;5066311;28;19982;-71
2022/11/10 03:09:21;;;;;;;;;;;9.90;99.90;;;;;;5064894;28;20042;-66
2022/11/10 03:12:07;;;;;;;;;;;9.90;99.90;;;;;;5062213;28;19946;-66
2022/11/10 03:14:52;;;;;;;;;;;9.80;99.90;;;;;;5063900;28;20623;-74
2022/11/10 03:17:37;;;;;;;;;;;9.80;99.90;;;;;;5063494;28;19931;-69
2022/11/10 03:20:23;;;;;;;;;;;9.80;99.90;;;;;;5062555;28;20001;-68
2022/11/10 03:23:08;;;;;;;;;;;9.70;99.90;;;;;;5066129;28;20407;-69
2022/11/10 03:25:53;;;;;;;;;;;9.70;99.90;;;;;;5063598;28;19935;-66
2022/11/10 03:28:38;;;;;;;;;;;9.60;99.90;;;;;;5066269;28;20082;-70
2022/11/10 03:31:24;;;;;;;;;;;9.60;99.90;;;;;;5062738;28;20042;-68
2022/11/10 03:34:09;;;;;;;;;;;9.60;99.90;;;;;;5062448;28;19936;-66
2022/11/10 03:36:55;;;;;;;;;;;9.60;99.90;;;;;;5072529;28;20416;-69
2022/11/10 03:39:40;;;;;;;;;;;9.60;99.90;;;;;;5064599;28;20018;-68
2022/11/10 03:42:25;;;;;;;;;;;9.70;99.90;;;;;;5064046;28;20001;-70
2022/11/10 03:45:11;;;;;;;;;;;9.70;99.90;;;;;;5066966;28;19930;-70
2022/11/10 03:47:56;;;;;;;;;;;9.70;99.90;;;;;;5063839;28;19946;-71
2022/11/10 03:50:41;;;;;;;;;;;9.60;99.90;;;;;;5063270;28;19982;-69
2022/11/10 03:53:26;;;;;;;;;;;9.70;99.90;;;;;;5059160;28;20066;-67
2022/11/10 03:56:12;;;;;;;;;;;9.70;99.90;;;;;;5062417;28;20484;-66
2022/11/10 03:58:57;;;;;;;;;;;9.80;99.90;;;;;;5064132;28;20729;-68
2022/11/10 04:01:42;;;;;;;;;;;9.80;99.90;;;;;;5065619;28;20361;-66
2022/11/10 04:10:36;;;;;;;;;;;9.90;99.90;;;;;;5062240;28;20325;-70
2022/11/10 04:16:26;;;;;;;;;;;9.90;99.90;;;;;;5065265;28;19943;-66
2022/11/10 04:19:11;;;;;;;;;;;9.90;99.90;;;;;;5058911;28;19930;-67
2022/11/10 04:21:56;;;;;;;;;;;10.00;99.90;;;;;;5062883;28;20062;-67
2022/11/10 04:24:41;;;;;;;;;;;10.00;99.90;;;;;;5062485;28;19927;-67
2022/11/10 04:27:26;;;;;;;;;;;10.00;99.90;;;;;;5061575;28;20029;-70
2022/11/10 04:30:11;;;;;;;;;;;10.10;99.90;;;;;;5056103;28;19947;-68
2022/11/10 04:32:56;;;;;;;;;;;10.10;99.90;;;;;;5058903;28;21585;-69
2022/11/10 04:35:42;;;;;;;;;;;10.10;99.90;;;;;;5061109;28;19935;-71
2022/11/10 04:38:27;;;;;;;;;;;10.10;99.90;;;;;;5057379;28;19926;-67
2022/11/10 04:41:13;;;;;;;;;;;10.10;99.90;;;;;;5059990;28;19930;-68
2022/11/10 04:43:59;;;;;;;;;;;10.10;99.90;;;;;;5060012;28;20088;-67
2022/11/10 04:46:44;;;;;;;;;;;10.10;99.90;;;;;;5061215;28;19928;-66
2022/11/10 04:49:29;;;;;;;;;;;10.10;99.90;;;;;;5059097;28;20853;-74
2022/11/10 04:52:15;;;;;;;;;;;10.10;99.90;;;;;;5059341;28;20070;-67
2022/11/10 04:55:00;;;;;;;;;;;10.10;99.90;;;;;;5061221;28;19927;-72
2022/11/10 04:57:45;;;;;;;;;;;10.10;99.90;;;;;;5062002;28;20310;-73
2022/11/10 05:00:31;;;;;;;;;;;10.10;99.90;;;;;;5056026;28;19934;-71
2022/11/10 05:03:17;;;;;;;;;;;10.10;99.90;;;;;;5059291;28;19928;-75
2022/11/10 05:06:02;;;;;;;;;;;10.10;99.90;;;;;;5061260;28;19947;-73
2022/11/10 05:08:48;;;;;;;;;;;10.10;99.90;;;;;;5061139;28;19989;-66
2022/11/10 05:11:34;;;;;;;;;;;10.10;99.90;;;;;;5063269;28;20021;-71
2022/11/10 05:14:19;;;;;;;;;;;10.10;99.90;;;;;;5065124;28;19935;-68
2022/11/10 05:17:04;;;;;;;;;;;10.10;99.90;;;;;;5061880;28;19935;-67
2022/11/10 05:19:50;;;;;;;;;;;10.10;99.90;;;;;;5057468;28;19928;-67
2022/11/10 05:22:35;;;;;;;;;;;10.10;99.90;;;;;;5061211;28;20281;-68
2022/11/10 05:25:21;;;;;;;;;;;10.10;99.90;;;;;;5065534;28;19947;-69
2022/11/10 05:28:07;;;;;;;;;;;10.10;99.90;;;;;;5059001;28;19931;-66
2022/11/10 05:30:52;;;;;;;;;;;10.10;99.90;;;;;;5066543;28;20038;-69
2022/11/10 05:33:38;;;;;;;;;;;10.10;99.90;;;;;;5059888;28;19956;-68
2022/11/10 05:36:23;;;;;;;;;;;10.10;99.90;;;;;;5062270;28;20049;-66
2022/11/10 05:39:08;;;;;;;;;;;10.10;99.90;;;;;;5065262;28;20044;-66
2022/11/10 05:41:53;;;;;;;;;;;10.10;99.90;;;;;;5060871;28;20218;-68
2022/11/10 05:44:38;;;;;;;;;;;10.10;99.90;;;;;;5063250;28;20058;-69
2022/11/10 05:47:24;;;;;;;;;;;10.20;99.90;;;;;;5067431;28;20026;-68
2022/11/10 05:50:10;;;;;;;;;;;10.20;99.90;;;;;;5064567;28;20277;-66
2022/11/10 05:52:55;;;;;;;;;;;10.10;99.90;;;;;;5069024;28;19982;-66
2022/11/10 05:55:40;;;;;;;;;;;10.20;99.90;;;;;;5062911;28;19970;-69
2022/11/10 05:58:26;;;;;;;;;;;10.20;99.90;;;;;;5061803;28;19928;-72
2022/11/10 06:01:11;;;;;;;;;;;10.20;99.90;;;;;;5066176;28;20168;-70
2022/11/10 06:03:56;;;;;;;;;;;10.20;99.90;;;;;;5062751;28;20078;-67
2022/11/10 06:06:42;;;;;;;;;;;10.20;99.90;;;;;;5064372;28;19939;-68
2022/11/10 06:09:28;;;;;;;;;;;10.20;99.90;;;;;;5062917;28;19965;-67
2022/11/10 06:12:14;;;;;;;;;;;10.20;99.90;;;;;;5067263;28;20576;-69
2022/11/10 06:14:59;;;;;;;;;;;10.20;99.90;;;;;;5065135;28;19931;-76
2022/11/10 06:17:44;;;;;;;;;;;10.20;99.90;;;;;;5066161;28;19974;-66
2022/11/10 06:20:30;;;;;;;;;;;10.20;99.90;;;;;;5064771;28;20021;-69
2022/11/10 06:23:15;;;;;;;;;;;10.20;99.90;;;;;;5061205;28;19982;-69
2022/11/10 06:26:00;;;;;;;;;;;10.20;99.90;;;;;;5061220;28;19980;-69
2022/11/10 06:28:45;;;;;;;;;;;10.30;99.90;;;;;;5068583;28;19942;-71
2022/11/10 06:31:31;;;;;;;;;;;10.30;99.90;;;;;;5066160;28;19929;-74
2022/11/10 06:34:16;;;;;;;;;;;10.30;99.90;;;;;;5062893;28;19931;-66
2022/11/10 06:37:01;;;;;;;;;;;10.40;99.90;;;;;;5064713;28;19947;-73
2022/11/10 06:39:47;;;;;;;;;;;10.40;99.90;;;;;;5066398;28;19930;-68
2022/11/10 06:42:32;;;;;;;;;;;10.40;99.90;;;;;;5063369;28;20116;-68
2022/11/10 06:45:17;;;;;;;;;;;10.40;99.90;;;;;;5064938;28;19931;-71
2022/11/10 06:48:04;;;;;;;;;;;10.50;99.90;;;;;;5066501;28;19966;-69
2022/11/10 06:50:49;;;;;;;;;;;10.60;99.90;;;;;;5063854;28;19931;-68
2022/11/10 06:53:34;;;;;;;;;;;10.60;99.90;;;;;;5066310;28;19929;-73
2022/11/10 06:56:19;;;;;;;;;;;10.70;99.90;;;;;;5072281;28;20073;-65
2022/11/10 06:59:05;;;;;;;;;;;10.70;99.90;;;;;;5068409;28;19926;-69
2022/11/10 07:01:50;;;;;;;;;;;10.70;99.90;;;;;;5073230;28;20274;-67
2022/11/10 07:04:35;;;;;;;;;;;10.80;99.90;;;;;;5066139;28;19974;-71
2022/11/10 07:07:20;;;;;;;;;;;10.70;99.90;;;;;;5068035;28;19927;-67
2022/11/10 07:10:06;;;;;;;;;;;10.80;99.90;;;;;;5066914;28;19931;-66
2022/11/10 07:12:58;;;;;;;;;;;10.80;99.90;;;;;;5064063;28;19932;-71
2022/11/10 07:15:44;;;;;;;;;;;10.80;99.90;;;;;;5063561;28;20061;-69
2022/11/10 07:18:29;;;;;;;;;;;10.80;99.90;;;;;;5066019;28;20251;-67
2022/11/10 07:21:14;;;;;;;;;;;10.80;99.90;;;;;;5068212;28;19930;-69
2022/11/10 07:23:59;;;;;;;;;;;10.80;99.90;;;;;;5060299;28;20025;-78
2022/11/10 07:26:44;;;;;;;;;;;10.80;99.90;;;;;;5071533;28;19943;-68
2022/11/10 07:29:30;;;;;;;;;;;10.80;99.90;;;;;;5066332;28;19946;-66
2022/11/10 07:32:15;;;;;;;;;;;10.80;99.90;;;;;;5067184;28;19947;-67
2022/11/10 07:35:00;;;;;;;;;;;10.80;99.90;;;;;;5066327;28;19927;-67
2022/11/10 07:37:45;;;;;;;;;;;10.80;99.90;;;;;;5074887;28;19930;-71
2022/11/10 07:40:31;;;;;;;;;;;10.80;99.90;;;;;;5049896;28;19989;-67
2022/11/10 07:43:16;;;;;;;;;;;10.80;99.90;;;;;;5066376;28;20020;-66
2022/11/10 07:46:02;;;;;;;;;;;10.80;99.90;;;;;;5067327;28;20302;-66
2022/11/10 07:48:47;;;;;;;;;;;10.90;99.90;;;;;;5067395;28;19927;-67
2022/11/10 07:51:32;;;;;;;;;;;10.90;99.90;;;;;;5070697;28;20388;-68
2022/11/10 07:54:17;;;;;;;;;;;10.80;99.90;;;;;;5064118;28;19974;-67
2022/11/10 07:57:03;;;;;;;;;;;10.80;99.90;;;;;;5061667;28;20002;-70
2022/11/10 07:59:48;;;;;;;;;;;10.80;99.90;;;;;;5057366;28;20014;-69
2022/11/10 08:02:37;;;;;;;;;;;10.80;99.90;;;;;;5066684;28;20319;-66
2022/11/10 08:05:22;;;;;;;;;;;10.80;99.90;;;;;;5057677;28;19927;-70
2022/11/10 08:08:07;;;;;;;;;;;10.80;99.90;;;;;;5067053;28;19992;-69
2022/11/10 08:10:56;;;;;;;;;;;10.80;99.90;;;;;;5066099;28;19931;-68
2022/11/10 08:13:41;;;;;;;;;;;10.80;99.90;;;;;;5069781;28;19927;-68
2022/11/10 08:16:26;;;;;;;;;;;10.80;99.90;;;;;;5070066;28;20002;-68
2022/11/10 08:19:11;;;;;;;;;;;10.80;99.90;;;;;;5065112;28;19986;-66
2022/11/10 08:21:57;;;;;;;;;;;10.80;99.90;;;;;;5065223;28;20309;-72
2022/11/10 08:24:42;;;;;;;;;;;10.70;99.90;;;;;;5059635;28;19947;-66
2022/11/10 08:27:28;;;;;;;;;;;10.80;99.90;;;;;;5063904;28;20046;-67
2022/11/10 08:30:13;;;;;;;;;;;10.80;99.90;;;;;;5065505;28;19928;-68
2022/11/10 08:33:00;;;;;;;;;;;10.70;99.90;;;;;;5066044;28;19931;-67
2022/11/10 08:35:46;;;;;;;;;;;10.70;99.90;;;;;;5066249;28;20377;-67
2022/11/10 08:38:32;;;;;;;;;;;10.80;99.90;;;;;;5061748;28;20778;-70
2022/11/10 08:41:18;;;;;;;;;;;10.80;99.90;;;;;;5064869;28;19930;-68
2022/11/10 08:44:03;;;;;;;;;;;10.80;99.90;;;;;;5063676;28;19926;-68
2022/11/10 08:46:54;;;;;;;;;;;10.80;99.90;;;;;;5064318;28;19935;-68
2022/11/10 08:49:39;;;;;;;;;;;10.80;99.90;;;;;;5068426;28;19946;-66
2022/11/10 08:52:25;;;;;;;;;;;10.80;99.90;;;;;;5057079;28;20362;-71
2022/11/10 08:55:10;;;;;;;;;;;10.80;99.90;;;;;;5064497;28;20022;-66
2022/11/10 08:57:59;;;;;;;;;;;10.80;99.90;;;;;;5069381;28;19993;-66
2022/11/10 09:00:45;;;;;;;;;;;10.80;99.90;;;;;;5068942;28;20324;-78
2022/11/10 09:03:30;;;;;;;;;;;10.80;99.90;;;;;;5068398;28;19986;-74
2022/11/10 09:06:15;;;;;;;;;;;10.70;99.90;;;;;;5068182;28;19935;-68
2022/11/10 09:09:00;;;;;;;;;;;10.80;99.90;;;;;;5070675;28;19977;-69
2022/11/10 09:11:45;;;;;;;;;;;10.80;99.90;;;;;;5063516;28;20389;-68
2022/11/10 09:14:32;;;;;;;;;;;10.80;99.90;;;;;;5060660;28;19928;-69
2022/11/10 09:17:17;;;;;;;;;;;10.80;99.90;;;;;;5069545;28;19927;-66
2022/11/10 09:20:03;;;;;;;;;;;10.80;99.90;;;;;;5066155;28;19927;-68
2022/11/10 09:22:49;;;;;;;;;;;10.90;99.90;;;;;;5068717;28;19943;-66
2022/11/10 09:25:34;;;;;;;;;;;10.90;99.90;;;;;;5068902;28;19934;-66
2022/11/10 09:28:20;;;;;;;;;;;10.90;99.90;;;;;;5062976;28;19928;-68
2022/11/10 09:31:05;;;;;;;;;;;10.80;99.90;;;;;;5067595;28;20391;-77
2022/11/10 09:33:51;;;;;;;;;;;10.80;99.90;;;;;;5070619;28;20332;-66
2022/11/10 09:36:36;;;;;;;;;;;10.90;99.90;;;;;;5072488;28;20089;-66
2022/11/10 09:39:22;;;;;;;;;;;10.90;99.90;;;;;;5072758;28;19934;-66
2022/11/10 09:42:28;;;;;;;;;;;10.90;99.90;;;;;;5067993;28;19930;-67
2022/11/10 09:45:21;;;;;;;;;;;10.90;99.90;;;;;;5064728;28;20298;-67
2022/11/10 09:48:26;;;;;;;;;;;10.90;99.90;;;;;;5064183;28;20001;-73
2022/11/10 09:51:16;;;;;;;;;;;10.90;99.90;;;;;;5071270;28;20286;-71
2022/11/10 09:54:10;;;;;;;;;;;10.90;99.90;;;;;;5067819;28;19930;-70
2022/11/10 09:56:59;;;;;;;;;;;10.80;99.90;;;;;;5070557;28;20029;-69
2022/11/10 09:59:44;;;;;;;;;;;10.80;99.90;;;;;;5069409;28;19931;-68
2022/11/10 10:02:35;;;;;;;;;;;10.90;99.90;;;;;;5064968;28;19943;-68
2022/11/10 10:05:39;;;;;;;;;;;10.90;99.90;;;;;;5069135;28;19932;-66
2022/11/10 10:08:25;;;;;;;;;;;10.90;99.90;;;;;;5067464;28;19977;-67
2022/11/10 10:11:19;;;;;;;;;;;10.90;99.90;;;;;;5065333;28;19931;-73
2022/11/10 10:14:08;;;;;;;;;;;10.90;99.90;;;;;;5067163;28;19926;-67
2022/11/10 10:16:58;;;;;;;;;;;11.00;99.90;;;;;;5069219;28;20039;-66
2022/11/10 10:19:56;;;;;;;;;;;11.00;99.90;;;;;;5068980;28;19974;-66
2022/11/10 10:22:53;;;;;;;;;;;11.10;99.90;;;;;;5063866;28;19928;-67
2022/11/10 10:25:40;;;;;;;;;;;11.10;99.90;;;;;;5062115;28;19927;-68
2022/11/10 10:28:39;;;;;;;;;;;11.20;99.90;;;;;;5069151;28;20066;-66
2022/11/10 10:31:28;;;;;;;;;;;11.10;99.90;;;;;;5069707;28;20333;-67
2022/11/10 10:34:18;;;;;;;;;;;11.10;99.90;;;;;;5065909;28;20339;-66
2022/11/10 10:37:04;;;;;;;;;;;11.10;99.90;;;;;;5065721;28;19943;-69
2022/11/10 10:39:50;;;;;;;;;;;11.10;99.90;;;;;;5068941;28;19931;-66
2022/11/10 10:42:36;;;;;;;;;;;11.10;99.90;;;;;;5073091;28;20081;-68
2022/11/10 10:45:27;;;;;;;;;;;11.10;99.90;;;;;;5064178;28;19993;-68
2022/11/10 10:48:23;;;;;;;;;;;11.00;99.90;;;;;;5061349;28;19966;-69
2022/11/10 10:51:09;;;;;;;;;;;11.00;99.90;;;;;;5062299;28;19927;-68
2022/11/10 10:53:54;;;;;;;;;;;11.00;99.90;;;;;;5064507;28;19947;-66
2022/11/10 10:56:39;;;;;;;;;;;11.00;99.90;;;;;;5066245;28;20012;-66
2022/11/10 10:59:24;;;;;;;;;;;11.00;99.90;;;;;;5066094;28;20142;-66
2022/11/10 11:02:31;;;;;;;;;;;10.90;99.90;;;;;;5065262;28;19931;-66
2022/11/10 11:05:17;;;;;;;;;;;11.00;99.90;;;;;;5066292;28;19943;-66
2022/11/10 11:08:03;;;;;;;;;;;11.00;99.90;;;;;;5064296;28;20005;-68
2022/11/10 11:10:48;;;;;;;;;;;11.00;99.90;;;;;;5063879;28;20042;-66
2022/11/10 11:13:33;;;;;;;;;;;11.00;99.90;;;;;;5069003;28;19938;-65
2022/11/10 11:16:19;;;;;;;;;;;11.00;99.90;;;;;;5063788;28;19927;-66
2022/11/10 11:19:04;;;;;;;;;;;11.10;99.90;;;;;;5064352;28;19945;-66
2022/11/10 11:21:58;;;;;;;;;;;11.10;99.90;;;;;;5069566;28;20046;-66
2022/11/10 11:25:02;;;;;;;;;;;11.20;99.90;;;;;;5065335;28;19931;-66
2022/11/10 11:27:53;;;;;;;;;;;11.20;99.90;;;;;;5066813;28;19952;-66
2022/11/10 11:30:41;;;;;;;;;;;11.20;99.90;;;;;;5063603;28;19931;-72
2022/11/10 11:33:46;;;;;;;;;;;11.10;99.90;;;;;;5066445;28;19931;-68
2022/11/10 11:36:42;;;;;;;;;;;11.10;99.90;;;;;;5060905;28;19931;-68
2022/11/10 11:39:33;;;;;;;;;;;11.10;99.90;;;;;;5063601;28;19962;-67
2022/11/10 11:42:27;;;;;;;;;;;11.00;99.90;;;;;;5060185;28;20093;-70
2022/11/10 11:45:31;;;;;;;;;;;11.00;99.90;;;;;;5062507;28;19958;-66
2022/11/10 11:48:19;;;;;;;;;;;11.00;99.90;;;;;;5061677;28;20579;-69
2022/11/10 11:51:17;;;;;;;;;;;11.00;99.90;;;;;;5062220;28;19971;-70
2022/11/10 11:54:25;;;;;;;;;;;11.00;99.90;;;;;;5059963;28;20057;-67
2022/11/10 11:57:27;;;;;;;;;;;11.00;99.90;;;;;;5065036;28;20327;-68
2022/11/10 12:00:14;;;;;;;;;;;11.10;99.90;;;;;;5060871;28;20345;-66
2022/11/10 12:02:59;;;;;;;;;;;11.10;99.90;;;;;;5068274;28;20293;-68
2022/11/10 12:05:51;;;;;;;;;;;11.10;99.90;;;;;;5059821;28;19931;-69
2022/11/10 12:08:41;;;;;;;;;;;11.10;99.90;;;;;;5062452;28;19935;-67
2022/11/10 12:11:47;;;;;;;;;;;11.10;99.90;;;;;;5067756;28;20042;-69
2022/11/10 12:14:35;;;;;;;;;;;11.00;99.90;;;;;;5060386;28;20098;-66
2022/11/10 12:17:20;;;;;;;;;;;11.10;99.90;;;;;;5065855;28;19983;-68
2022/11/10 12:20:17;;;;;;;;;;;11.10;99.90;;;;;;5061298;28;20019;-68
2022/11/10 12:23:20;;;;;;;;;;;11.00;99.90;;;;;;5062224;28;20397;-66
2022/11/10 12:26:11;;;;;;;;;;;11.10;99.90;;;;;;5060613;28;19931;-67
2022/11/10 12:29:08;;;;;;;;;;;11.10;99.90;;;;;;5067403;28;20392;-68
2022/11/10 12:31:57;;;;;;;;;;;11.10;99.90;;;;;;5065342;28;19927;-67
2022/11/10 12:34:45;;;;;;;;;;;11.10;99.90;;;;;;5063184;28;19931;-68
2022/11/10 12:37:43;;;;;;;;;;;11.10;99.90;;;;;;5068109;28;20027;-67
2022/11/10 12:40:28;;;;;;;;;;;11.10;99.90;;;;;;5068843;28;20060;-76
2022/11/10 12:43:21;;;;;;;;;;;11.00;99.90;;;;;;5066721;28;20118;-67
2022/11/10 12:46:09;;;;;;;;;;;11.10;99.90;;;;;;5068353;28;19977;-67
2022/11/10 12:49:06;;;;;;;;;;;11.10;99.90;;;;;;5068590;28;19993;-77
2022/11/10 12:51:52;;;;;;;;;;;11.10;99.90;;;;;;5070262;28;19935;-68
2022/11/10 12:54:38;;;;;;;;;;;11.10;99.90;;;;;;5067817;28;19974;-71
2022/11/10 12:57:25;;;;;;;;;;;11.00;99.90;;;;;;5053595;28;20278;-68
2022/11/10 13:00:25;;;;;;;;;;;11.00;99.90;;;;;;5060092;28;20554;-67
2022/11/10 13:03:36;;;;;;;;;;;11.00;99.90;;;;;;5070744;28;19947;-66
2022/11/10 13:06:31;;;;;;;;;;;10.90;99.90;;;;;;5061986;28;19930;-68
2022/11/10 13:09:34;;;;;;;;;;;10.90;99.90;;;;;;5059332;28;20724;-71
2022/11/10 13:12:23;;;;;;;;;;;10.80;99.90;;;;;;5061247;28;20001;-70
2022/11/10 13:15:27;;;;;;;;;;;10.80;99.90;;;;;;5063035;28;19977;-71
2022/11/10 13:18:41;;;;;;;;;;;10.80;99.90;;;;;;5061848;28;20013;-69
2022/11/10 13:21:45;;;;;;;;;;;10.80;99.90;;;;;;5063632;28;20030;-70
2022/11/10 13:24:31;;;;;;;;;;;10.70;99.90;;;;;;5058318;28;19978;-77
2022/11/10 13:27:35;;;;;;;;;;;10.70;99.90;;;;;;5059709;28;19985;-73
2022/11/10 13:30:37;;;;;;;;;;;10.70;99.90;;;;;;5058147;28;20005;-69
2022/11/10 13:33:33;;;;;;;;;;;10.70;99.90;;;;;;5061125;28;20920;-68
2022/11/10 13:36:38;;;;;;;;;;;10.70;99.90;;;;;;5057367;28;19935;-68
2022/11/10 13:39:25;;;;;;;;;;;10.70;99.90;;;;;;5070652;28;20392;-70
2022/11/10 13:42:16;;;;;;;;;;;10.60;99.90;;;;;;5057262;28;20070;-68
2022/11/10 13:45:21;;;;;;;;;;;10.60;99.90;;;;;;5063288;28;20413;-67
2022/11/10 13:48:06;;;;;;;;;;;10.60;99.90;;;;;;5064278;28;20662;-68
2022/11/10 13:50:59;;;;;;;;;;;10.60;99.90;;;;;;5062337;28;19931;-71
2022/11/10 13:53:45;;;;;;;;;;;10.60;99.90;;;;;;5065901;28;19952;-71
2022/11/10 13:56:30;;;;;;;;;;;10.50;99.90;;;;;;5059333;28;20358;-69
2022/11/10 13:59:17;;;;;;;;;;;10.50;99.90;;;;;;5052339;28;19932;-67
2022/11/10 14:02:21;;;;;;;;;;;10.50;99.90;;;;;;5063239;28;19939;-72
2022/11/10 14:05:08;;;;;;;;;;;10.40;99.90;;;;;;5069198;28;19927;-66
2022/11/10 14:08:04;;;;;;;;;;;10.40;99.90;;;;;;5063612;28;19935;-69
2022/11/10 14:10:51;;;;;;;;;;;10.40;99.90;;;;;;5066814;28;20118;-70
2022/11/10 14:13:42;;;;;;;;;;;10.30;99.90;;;;;;5063862;28;20353;-67
2022/11/10 14:16:30;;;;;;;;;;;10.30;99.90;;;;;;5065854;28;19966;-66
2022/11/10 14:19:30;;;;;;;;;;;10.30;99.90;;;;;;5063702;28;19967;-70
2022/11/10 14:22:21;;;;;;;;;;;10.30;99.90;;;;;;5064630;28;19972;-69
2022/11/10 14:25:13;;;;;;;;;;;10.30;99.90;;;;;;5065360;28;20018;-67
2022/11/10 14:27:58;;;;;;;;;;;10.20;99.90;;;;;;5062614;28;19928;-67
2022/11/10 14:30:49;;;;;;;;;;;10.20;99.90;;;;;;5064514;28;19927;-67
2022/11/10 14:33:34;;;;;;;;;;;10.20;99.90;;;;;;5068766;28;19955;-67
2022/11/10 14:36:19;;;;;;;;;;;10.20;99.90;;;;;;5056428;28;20050;-69
2022/11/10 14:39:05;;;;;;;;;;;10.10;99.90;;;;;;5068880;28;20420;-68
2022/11/10 14:41:51;;;;;;;;;;;10.10;99.90;;;;;;5059607;28;19939;-67
2022/11/10 14:44:36;;;;;;;;;;;10.10;99.90;;;;;;5058352;28;20721;-67
2022/11/10 14:47:22;;;;;;;;;;;10.10;99.90;;;;;;5071002;28;19931;-70
2022/11/10 14:50:16;;;;;;;;;;;10.10;99.90;;;;;;5062769;28;19931;-68
2022/11/10 14:53:07;;;;;;;;;;;10.10;99.90;;;;;;5064953;28;19927;-68
2022/11/10 14:55:52;;;;;;;;;;;10.10;99.90;;;;;;5063655;28;20017;-68
2022/11/10 14:58:40;;;;;;;;;;;10.10;99.90;;;;;;5064094;28;19932;-69
2022/11/10 15:01:32;;;;;;;;;;;10.10;99.90;;;;;;5064576;28;20009;-70
2022/11/10 15:04:18;;;;;;;;;;;10.10;99.90;;;;;;5065579;28;20377;-67
2022/11/10 15:07:04;;;;;;;;;;;10.10;99.90;;;;;;5064344;28;19928;-67
2022/11/10 15:10:08;;;;;;;;;;;10.10;99.90;;;;;;5067290;28;19927;-69
2022/11/10 15:13:00;;;;;;;;;;;10.10;99.90;;;;;;5062283;28;20290;-70
2022/11/10 15:15:46;;;;;;;;;;;10.10;99.90;;;;;;5065940;28;19972;-69
2022/11/10 15:18:31;;;;;;;;;;;10.10;99.90;;;;;;5061697;28;19927;-68
2022/11/10 15:21:18;;;;;;;;;;;10.10;99.90;;;;;;5065182;28;19954;-70
2022/11/10 15:24:04;;;;;;;;;;;10.10;99.90;;;;;;5063595;28;19928;-67
2022/11/10 15:26:50;;;;;;;;;;;10.10;99.90;;;;;;5061953;28;19948;-68
2022/11/10 15:29:36;;;;;;;;;;;10.10;99.90;;;;;;5063121;28;20046;-68
2022/11/10 15:32:24;;;;;;;;;;;10.20;99.90;;;;;;5061236;28;19947;-66
2022/11/10 15:35:30;;;;;;;;;;;10.20;99.90;;;;;;5066089;28;19928;-67
2022/11/10 15:38:15;;;;;;;;;;;10.20;99.90;;;;;;5066195;28;19970;-67
2022/11/10 15:41:13;;;;;;;;;;;10.10;99.90;;;;;;5061120;28;19928;-66
2022/11/10 15:44:17;;;;;;;;;;;10.10;99.90;;;;;;5065405;28;19931;-70
2022/11/10 15:47:02;;;;;;;;;;;10.10;99.90;;;;;;5066881;28;20070;-70
2022/11/10 15:49:47;;;;;;;;;;;10.10;99.90;;;;;;5064122;28;20007;-70
2022/11/10 15:52:33;;;;;;;;;;;10.00;99.90;;;;;;5063469;28;19989;-67
2022/11/10 15:55:19;;;;;;;;;;;10.10;99.90;;;;;;5065060;28;20001;-66
2022/11/10 15:58:10;;;;;;;;;;;10.10;99.90;;;;;;5063258;28;20421;-73
2022/11/10 16:00:56;;;;;;;;;;;10.00;99.90;;;;;;5063531;28;20395;-72
2022/11/10 16:03:41;;;;;;;;;;;10.00;99.90;;;;;;5060645;28;20658;-67
2022/11/10 16:06:29;;;;;;;;;;;10.00;99.90;;;;;;5065776;28;20484;-68
2022/11/10 16:09:14;;;;;;;;;;;10.00;99.90;;;;;;5066653;28;19931;-71
2022/11/10 16:12:00;;;;;;;;;;;10.00;99.90;;;;;;5064183;28;20239;-70
2022/11/10 16:14:47;;;;;;;;;;;10.00;99.90;;;;;;5068028;28;19931;-67